Time;durP1;ratioP1;P1;durP2;ratioP2;P2;SDS_P1;SDS_P2;PMS_P1;PMS_P2;Temp;Humidity;BMP_temperature;BMP_pressure;BME280_temperature;BME280_humidity;BME280_pressure;Samples;Min_cycle;Max_cycle;Signal;HPM_P1;HPM_P2
2021/08/10 00:00:08;;;;;;;17.25;8.98;;;;;;;;;;5024196;28;20049;-64
2021/08/10 00:02:34;;;;;;;;;;;;;;;;;;5023035;28;20082;-64
2021/08/10 00:05:01;;;;;;;15.43;8.80;;;;;;;;;;5021507;28;19925;-64
2021/08/10 00:07:27;;;;;;;17.27;9.60;;;;;;;;;;5028351;28;20580;-64
2021/08/10 00:09:54;;;;;;;17.35;9.93;;;;;;;;;;5018598;28;20633;-64
2021/08/10 00:12:21;;;;;;;20.15;9.82;;;;;;;;;;5020923;28;20053;-64
2021/08/10 00:14:48;;;;;;;24.98;10.45;;;;;;;;;;5023113;28;20576;-64
2021/08/10 00:17:15;;;;;;;19.70;11.10;;;;;;;;;;5026345;28;20053;-64
2021/08/10 00:19:41;;;;;;;17.10;10.43;;;;;;;;;;5026510;28;20046;-64
2021/08/10 00:22:08;;;;;;;25.98;11.65;;;;;;;;;;5019316;28;20056;-64
2021/08/10 00:24:34;;;;;;;22.63;11.43;;;;;;;;;;5021595;28;20553;-64
2021/08/10 00:27:01;;;;;;;24.17;12.10;;;;;;;;;;5027392;28;20128;-64
2021/08/10 00:29:29;;;;;;;26.48;12.20;;;;;;;;;;5024245;28;20140;-64
2021/08/10 00:31:55;;;;;;;21.88;11.73;;;;;;;;;;5018736;28;20054;-65
2021/08/10 00:34:22;;;;;;;22.33;11.85;;;;;;;;;;5020056;28;20137;-65
2021/08/10 00:36:48;;;;;;;26.97;12.73;;;;;;;;;;5017520;28;20097;-64
2021/08/10 00:39:15;;;;;;;22.63;12.93;;;;;;;;;;5022613;28;20933;-64
2021/08/10 00:41:41;;;;;;;22.45;12.60;;;;;;;;;;5020798;28;20137;-65
2021/08/10 00:44:08;;;;;;;31.70;15.27;;;;;;;;;;5018645;28;20077;-64
2021/08/10 00:46:35;;;;;;;29.80;12.03;;;;;;;;;;5024450;28;20124;-64
2021/08/10 00:49:01;;;;;;;29.30;13.80;;;;;;;;;;5021374;28;20160;-64
2021/08/10 00:51:28;;;;;;;31.73;13.93;;;;;;;;;;5021843;28;20129;-65
2021/08/10 00:53:55;;;;;;;43.03;17.23;;;;;;;;;;5021500;28;20120;-64
2021/08/10 00:56:21;;;;;;;31.88;14.68;;;;;;;;;;5024091;28;20150;-64
2021/08/10 00:58:48;;;;;;;36.38;15.40;;;;;;;;;;5026777;28;20128;-64
2021/08/10 01:01:14;;;;;;;31.92;15.38;;;;;;;;;;5026153;28;20169;-64
2021/08/10 01:03:41;;;;;;;33.37;16.37;;;;;;;;;;5022872;28;20045;-64
2021/08/10 01:06:11;;;;;;;35.20;16.50;;;;;;;;;;5023180;28;20300;-64
2021/08/10 01:08:45;;;;;;;52.20;18.17;;;;;;;;;;5021049;28;20094;-64
2021/08/10 01:11:30;;;;;;;32.22;15.63;;;;;;;;;;5017859;28;20597;-64
2021/08/10 01:14:00;;;;;;;46.33;16.85;;;;;;;;;;5023086;28;20088;-64
2021/08/10 01:16:47;;;;;;;37.83;16.73;;;;;;;;;;5022238;28;20092;-64
2021/08/10 01:19:34;;;;;;;29.77;16.58;;;;;;;;;;5025085;28;20120;-64
2021/08/10 01:22:02;;;;;;;38.10;16.42;;;;;;;;;;4991882;28;20136;-64
2021/08/10 01:24:32;;;;;;;43.97;19.27;;;;;;;;;;5018130;28;20084;-64
2021/08/10 01:27:22;;;;;;;43.88;18.75;;;;;;;;;;5017628;28;20128;-64
2021/08/10 01:30:02;;;;;;;41.00;18.05;;;;;;;;;;5025273;28;20516;-65
2021/08/10 01:32:29;;;;;;;38.00;17.50;;;;;;;;;;5022829;28;20089;-64
2021/08/10 01:34:56;;;;;;;41.53;17.67;;;;;;;;;;5020373;28;20133;-64
2021/08/10 01:37:24;;;;;;;69.40;17.23;;;;;;;;;;5028644;28;20128;-64
2021/08/10 01:39:53;;;;;;;44.92;14.57;;;;;;;;;;5027336;28;20125;-64
2021/08/10 01:42:19;;;;;;;30.92;15.60;;;;;;;;;;5023962;28;20080;-64
2021/08/10 01:44:47;;;;;;;57.45;18.25;;;;;;;;;;5024938;28;20140;-64
2021/08/10 01:47:14;;;;;;;39.47;16.80;;;;;;;;;;5025404;28;20053;-64
2021/08/10 01:49:41;;;;;;;;;;;;;;;;;;5026053;28;20083;-64
2021/08/10 01:52:12;;;;;;;39.65;17.52;;;;;;;;;;5026421;28;20023;-64
2021/08/10 01:54:40;;;;;;;50.25;18.83;;;;;;;;;;5027093;28;20055;-64
2021/08/10 01:57:07;;;;;;;37.53;17.65;;;;;;;;;;5019165;28;20132;-64
2021/08/10 01:59:34;;;;;;;124.05;18.27;;;;;;;;;;5024061;28;20137;-64
2021/08/10 02:02:00;;;;;;;134.40;17.52;;;;;;;;;;5025976;28;20136;-64
2021/08/10 02:04:28;;;;;;;40.95;15.48;;;;;;;;;;5030134;28;20041;-65
2021/08/10 02:06:54;;;;;;;49.97;19.30;;;;;;;;;;5025273;28;20152;-64
2021/08/10 02:09:21;;;;;;;41.88;17.98;;;;;;;;;;5026883;28;20105;-65
2021/08/10 02:11:49;;;;;;;55.35;20.45;;;;;;;;;;5022498;28;20053;-64
2021/08/10 02:14:22;;;;;;;41.03;17.50;;;;;;;;;;5023858;28;20461;-64
2021/08/10 02:16:50;;;;;;;30.17;14.68;;;;;;;;;;5021364;28;20516;-64
2021/08/10 02:19:17;;;;;;;31.10;13.23;;;;;;;;;;5024178;28;20165;-64
2021/08/10 02:21:45;;;;;;;31.67;14.23;;;;;;;;;;5022298;28;20045;-64
2021/08/10 02:24:35;;;;;;;94.05;13.63;;;;;;;;;;5020739;28;20124;-64
2021/08/10 02:27:03;;;;;;;38.60;16.42;;;;;;;;;;5015147;28;20046;-64
2021/08/10 02:29:34;;;;;;;34.92;16.30;;;;;;;;;;5021176;28;20498;-64
2021/08/10 02:32:02;;;;;;;41.13;18.90;;;;;;;;;;5022073;28;20054;-64
2021/08/10 02:34:28;;;;;;;54.67;20.33;;;;;;;;;;5021084;28;20132;-64
2021/08/10 02:36:58;;;;;;;43.00;18.60;;;;;;;;;;5027809;28;20141;-64
2021/08/10 02:39:25;;;;;;;41.00;17.50;;;;;;;;;;5021446;28;20081;-64
2021/08/10 02:41:53;;;;;;;40.30;18.90;;;;;;;;;;5016313;28;20445;-64
2021/08/10 02:44:21;;;;;;;38.33;18.45;;;;;;;;;;5025603;28;20132;-64
2021/08/10 02:46:47;;;;;;;46.90;20.38;;;;;;;;;;5022142;28;20077;-64
2021/08/10 02:49:13;;;;;;;39.40;18.77;;;;;;;;;;5029094;28;20081;-64
2021/08/10 02:51:40;;;;;;;38.47;18.60;;;;;;;;;;5026441;28;20128;-64
2021/08/10 02:54:07;;;;;;;373.33;18.92;;;;;;;;;;5024494;28;20144;-64
2021/08/10 02:56:35;;;;;;;35.15;14.02;;;;;;;;;;5028214;28;20152;-64
2021/08/10 02:59:06;;;;;;;39.78;18.45;;;;;;;;;;5023972;28;20552;-64
2021/08/10 03:01:35;;;;;;;49.60;20.83;;;;;;;;;;5021475;28;20132;-64
2021/08/10 03:04:04;;;;;;;36.97;17.05;;;;;;;;;;5021323;28;20132;-64
2021/08/10 03:06:31;;;;;;;53.92;19.05;;;;;;;;;;5023193;28;20080;-64
2021/08/10 03:08:59;;;;;;;40.83;18.08;;;;;;;;;;5021975;28;20120;-64
2021/08/10 03:11:26;;;;;;;41.25;16.42;;;;;;;;;;5020705;28;20041;-64
2021/08/10 03:13:53;;;;;;;35.20;16.23;;;;;;;;;;5026759;28;20132;-64
2021/08/10 03:16:20;;;;;;;37.00;15.13;;;;;;;;;;5020149;28;20077;-64
2021/08/10 03:18:48;;;;;;;22.53;12.20;;;;;;;;;;5019291;28;20128;-64
2021/08/10 03:21:15;;;;;;;36.50;14.02;;;;;;;;;;5023781;28;20380;-64
2021/08/10 03:23:43;;;;;;;42.58;16.90;;;;;;;;;;5022505;28;20073;-64
2021/08/10 03:26:13;;;;;;;31.95;14.75;;;;;;;;;;5024370;28;20085;-64
2021/08/10 03:28:41;;;;;;;78.20;14.25;;;;;;;;;;5027293;28;20053;-64
2021/08/10 03:31:09;;;;;;;133.48;14.25;;;;;;;;;;5028117;28;20045;-64
2021/08/10 03:33:35;;;;;;;;;;;;;;;;;;5023494;28;20049;-64
2021/08/10 03:36:04;;;;;;;27.77;13.85;;;;;;;;;;5024660;28;19984;-64
2021/08/10 03:38:31;;;;;;;28.45;15.13;;;;;;;;;;5020557;28;20129;-64
2021/08/10 03:40:57;;;;;;;34.08;16.38;;;;;;;;;;5028713;28;20132;-64
2021/08/10 03:43:27;;;;;;;41.45;16.88;;;;;;;;;;5018383;28;20077;-64
2021/08/10 03:45:54;;;;;;;38.42;17.65;;;;;;;;;;5023396;28;20105;-64
2021/08/10 03:48:21;;;;;;;43.15;18.65;;;;;;;;;;5026353;28;20137;-64
2021/08/10 03:50:49;;;;;;;26.80;15.15;;;;;;;;;;5026177;28;20080;-64
2021/08/10 03:53:15;;;;;;;41.28;18.23;;;;;;;;;;5021951;28;20088;-64
2021/08/10 03:55:44;;;;;;;45.45;17.75;;;;;;;;;;5024575;28;20127;-64
2021/08/10 03:58:11;;;;;;;33.03;15.23;;;;;;;;;;5025562;28;20073;-64
2021/08/10 04:00:38;;;;;;;24.67;11.93;;;;;;;;;;5024657;28;20560;-64
2021/08/10 04:03:05;;;;;;;15.35;7.80;;;;;;;;;;5028074;28;20098;-64
2021/08/10 04:05:34;;;;;;;30.75;12.68;;;;;;;;;;5028546;28;20081;-64
2021/08/10 04:08:01;;;;;;;;;;;;;;;;;;5029011;28;20120;-64
2021/08/10 04:10:27;;;;;;;35.20;17.42;;;;;;;;;;5027835;28;19952;-64
2021/08/10 04:12:54;;;;;;;31.75;15.85;;;;;;;;;;5027417;28;20528;-64
2021/08/10 04:15:21;;;;;;;35.42;17.88;;;;;;;;;;5026132;28;20053;-64
2021/08/10 04:17:47;;;;;;;38.55;18.60;;;;;;;;;;5026094;28;20091;-64
2021/08/10 04:20:16;;;;;;;36.53;17.80;;;;;;;;;;5022990;28;20064;-64
2021/08/10 04:22:42;;;;;;;27.98;15.52;;;;;;;;;;5025442;28;20121;-64
2021/08/10 04:25:09;;;;;;;22.77;12.17;;;;;;;;;;5024500;28;20139;-64
2021/08/10 04:27:35;;;;;;;17.95;11.20;;;;;;;;;;5022122;28;20569;-64
2021/08/10 04:30:02;;;;;;;24.52;11.57;;;;;;;;;;5022167;28;20096;-64
2021/08/10 04:32:29;;;;;;;23.23;12.00;;;;;;;;;;5025502;28;20128;-64
2021/08/10 04:34:55;;;;;;;18.67;12.07;;;;;;;;;;5020719;28;20088;-64
2021/08/10 04:37:22;;;;;;;33.30;16.10;;;;;;;;;;5022013;28;20088;-64
2021/08/10 04:39:49;;;;;;;30.40;14.55;;;;;;;;;;5021367;28;20133;-64
2021/08/10 04:42:15;;;;;;;26.98;14.32;;;;;;;;;;5025411;28;20096;-64
2021/08/10 04:44:42;;;;;;;25.15;14.75;;;;;;;;;;5017584;28;20069;-64
2021/08/10 04:47:09;;;;;;;30.67;15.32;;;;;;;;;;5019882;28;20080;-64
2021/08/10 04:49:35;;;;;;;32.55;16.98;;;;;;;;;;5017584;28;20161;-64
2021/08/10 04:52:02;;;;;;;40.38;16.23;;;;;;;;;;5022969;28;20054;-64
2021/08/10 04:54:29;;;;;;;68.28;19.52;;;;;;;;;;5023682;28;20133;-64
2021/08/10 04:56:55;;;;;;;79.70;21.05;;;;;;;;;;5024611;28;20041;-64
2021/08/10 04:59:22;;;;;;;102.72;23.33;;;;;;;;;;5025847;28;20073;-64
2021/08/10 05:01:49;;;;;;;124.47;25.97;;;;;;;;;;5020344;28;20473;-64
2021/08/10 05:04:15;;;;;;;191.85;29.35;;;;;;;;;;5023420;28;20045;-64
2021/08/10 05:06:42;;;;;;;159.23;26.45;;;;;;;;;;5021635;28;20046;-64
2021/08/10 05:09:09;;;;;;;153.15;27.27;;;;;;;;;;5025150;28;20128;-64
2021/08/10 05:11:36;;;;;;;108.28;23.63;;;;;;;;;;5024130;28;20132;-64
2021/08/10 05:14:02;;;;;;;79.05;20.58;;;;;;;;;;5022733;28;20133;-64
2021/08/10 05:16:29;;;;;;;53.65;15.27;;;;;;;;;;5021384;28;20091;-64
2021/08/10 05:18:56;;;;;;;65.57;14.88;;;;;;;;;;5026498;28;20045;-64
2021/08/10 05:21:23;;;;;;;104.78;22.00;;;;;;;;;;5027401;28;20081;-64
2021/08/10 05:23:49;;;;;;;86.72;20.80;;;;;;;;;;5023057;28;20500;-64
2021/08/10 05:26:17;;;;;;;84.22;23.88;;;;;;;;;;5026429;28;20116;-64
2021/08/10 05:28:43;;;;;;;157.95;30.23;;;;;;;;;;5026647;28;20092;-64
2021/08/10 05:31:10;;;;;;;106.37;24.57;;;;;;;;;;5025100;28;20091;-64
2021/08/10 05:33:37;;;;;;;89.17;22.67;;;;;;;;;;5024273;28;20056;-64
2021/08/10 05:36:03;;;;;;;97.05;28.23;;;;;;;;;;5027509;28;20295;-64
2021/08/10 05:38:30;;;;;;;79.95;28.75;;;;;;;;;;5030465;28;20144;-64
2021/08/10 05:40:56;;;;;;;75.57;29.17;;;;;;;;;;5021660;28;20593;-64
2021/08/10 05:43:23;;;;;;;78.25;28.00;;;;;;;;;;5023336;28;20073;-64
2021/08/10 05:45:49;;;;;;;58.00;26.30;;;;;;;;;;5022254;28;20152;-64
2021/08/10 05:48:16;;;;;;;63.28;26.17;;;;;;;;;;5025116;28;20474;-64
2021/08/10 05:50:44;;;;;;;69.03;28.92;;;;;;;;;;5026829;28;20133;-64
2021/08/10 05:53:10;;;;;;;56.95;26.38;;;;;;;;;;5024791;28;20081;-64
2021/08/10 05:55:37;;;;;;;49.50;24.55;;;;;;;;;;5022081;28;20461;-64
2021/08/10 05:58:03;;;;;;;64.75;26.30;;;;;;;;;;5025773;28;20089;-64
2021/08/10 06:00:33;;;;;;;59.33;26.95;;;;;;;;;;5026763;28;20136;-64
2021/08/10 06:03:00;;;;;;;56.75;26.65;;;;;;;;;;5028640;28;20046;-64
2021/08/10 06:05:27;;;;;;;51.00;26.90;;;;;;;;;;5023600;28;20053;-64
2021/08/10 06:07:54;;;;;;;57.78;27.15;;;;;;;;;;5027010;28;20072;-64
2021/08/10 06:10:20;;;;;;;45.17;22.52;;;;;;;;;;5024549;28;20124;-64
2021/08/10 06:12:46;;;;;;;38.53;21.67;;;;;;;;;;5025518;28;20149;-64
2021/08/10 06:15:15;;;;;;;37.00;20.20;;;;;;;;;;5023032;28;20366;-64
2021/08/10 06:17:41;;;;;;;35.17;18.52;;;;;;;;;;5024527;28;20081;-64
2021/08/10 06:20:08;;;;;;;36.72;17.83;;;;;;;;;;5027047;28;20077;-64
2021/08/10 06:22:38;;;;;;;32.13;16.25;;;;;;;;;;5020966;28;20073;-64
2021/08/10 06:25:04;;;;;;;32.08;16.00;;;;;;;;;;5024720;28;20079;-64
2021/08/10 06:27:30;;;;;;;26.60;13.70;;;;;;;;;;5022581;28;20081;-64
2021/08/10 06:29:57;;;;;;;26.77;14.80;;;;;;;;;;5027132;28;20128;-64
2021/08/10 06:32:24;;;;;;;29.27;15.52;;;;;;;;;;5026644;28;20128;-64
2021/08/10 06:34:50;;;;;;;28.52;13.77;;;;;;;;;;5026777;28;20053;-64
2021/08/10 06:37:17;;;;;;;32.03;14.27;;;;;;;;;;5021235;28;20144;-64
2021/08/10 06:39:43;;;;;;;26.85;12.30;;;;;;;;;;5026667;28;20385;-64
2021/08/10 06:42:10;;;;;;;29.65;12.02;;;;;;;;;;5021131;28;20569;-64
2021/08/10 06:44:37;;;;;;;24.77;12.98;;;;;;;;;;5022785;28;20085;-64
2021/08/10 06:47:03;;;;;;;23.15;12.68;;;;;;;;;;5023517;28;20058;-64
2021/08/10 06:49:30;;;;;;;24.52;12.05;;;;;;;;;;5023195;28;20072;-65
2021/08/10 06:51:56;;;;;;;26.27;11.30;;;;;;;;;;5024837;28;20143;-64
2021/08/10 06:54:23;;;;;;;25.13;11.60;;;;;;;;;;5018220;28;20743;-64
2021/08/10 06:56:49;;;;;;;31.52;11.27;;;;;;;;;;5024535;28;20129;-64
2021/08/10 06:59:16;;;;;;;29.48;10.40;;;;;;;;;;5025047;28;20092;-64
2021/08/10 07:01:42;;;;;;;24.38;10.32;;;;;;;;;;5029972;28;20084;-64
2021/08/10 07:04:11;;;;;;;17.17;9.10;;;;;;;;;;5022292;28;20054;-64
2021/08/10 07:06:37;;;;;;;23.27;9.63;;;;;;;;;;5025985;28;20133;-64
2021/08/10 07:09:05;;;;;;;25.95;9.40;;;;;;;;;;5025082;28;20132;-64
2021/08/10 07:11:34;;;;;;;18.85;8.32;;;;;;;;;;5003895;28;20041;-64
2021/08/10 07:14:00;;;;;;;28.05;7.75;;;;;;;;;;5025288;28;20535;-64
2021/08/10 07:16:27;;;;;;;15.85;7.30;;;;;;;;;;5028442;28;20046;-64
2021/08/10 07:18:54;;;;;;;18.48;7.63;;;;;;;;;;5024006;28;20804;-64
2021/08/10 07:21:22;;;;;;;21.07;6.87;;;;;;;;;;5025976;28;20073;-64
2021/08/10 07:23:48;;;;;;;16.63;5.95;;;;;;;;;;5024269;28;20569;-65
2021/08/10 07:26:14;;;;;;;12.10;6.20;;;;;;;;;;5024229;28;20136;-64
2021/08/10 07:28:42;;;;;;;11.23;6.00;;;;;;;;;;5025222;28;20125;-64
2021/08/10 07:31:08;;;;;;;20.23;6.00;;;;;;;;;;5024054;28;20144;-64
2021/08/10 07:33:35;;;;;;;19.48;6.25;;;;;;;;;;5022954;28;20096;-64
2021/08/10 07:36:05;;;;;;;19.55;5.97;;;;;;;;;;5023324;28;20610;-65
2021/08/10 07:38:32;;;;;;;14.23;5.57;;;;;;;;;;5023604;28;20140;-64
2021/08/10 07:40:59;;;;;;;13.60;5.97;;;;;;;;;;5023344;28;20187;-64
2021/08/10 07:43:28;;;;;;;14.70;5.82;;;;;;;;;;5021027;28;20406;-64
2021/08/10 07:45:55;;;;;;;17.73;6.35;;;;;;;;;;5021188;28;20141;-64
2021/08/10 07:48:21;;;;;;;12.20;5.90;;;;;;;;;;5023580;28;20506;-64
2021/08/10 07:50:48;;;;;;;10.10;4.90;;;;;;;;;;5023177;28;20141;-64
2021/08/10 07:53:16;;;;;;;10.05;4.45;;;;;;;;;;5018794;28;20351;-64
2021/08/10 07:55:42;;;;;;;10.90;4.32;;;;;;;;;;5025459;28;20046;-64
2021/08/10 07:58:10;;;;;;;10.75;4.15;;;;;;;;;;5023522;28;20904;-64
2021/08/10 08:00:36;;;;;;;11.93;4.15;;;;;;;;;;5017021;28;20660;-64
2021/08/10 08:03:03;;;;;;;6.65;3.78;;;;;;;;;;5020171;28;20049;-64
2021/08/10 08:05:31;;;;;;;13.52;4.00;;;;;;;;;;5027107;28;20088;-64
2021/08/10 08:07:58;;;;;;;10.32;4.28;;;;;;;;;;5025311;28;20077;-64
2021/08/10 08:10:24;;;;;;;11.65;4.10;;;;;;;;;;5017521;28;20676;-64
2021/08/10 08:13:12;;;;;;;12.13;3.95;;;;;;;;;;5022300;28;20141;-64
2021/08/10 08:15:38;;;;;;;8.65;3.78;;;;;;;;;;5016187;28;20088;-64
2021/08/10 08:18:05;;;;;;;8.77;4.57;;;;;;;;;;5018776;28;20077;-64
2021/08/10 08:20:31;;;;;;;10.07;3.97;;;;;;;;;;5022461;28;20134;-64
2021/08/10 08:22:58;;;;;;;11.73;3.95;;;;;;;;;;5024966;28;20132;-64
2021/08/10 08:25:24;;;;;;;5.77;3.83;;;;;;;;;;5019053;28;20489;-64
2021/08/10 08:27:51;;;;;;;11.60;4.30;;;;;;;;;;5024647;28;20129;-64
2021/08/10 08:30:18;;;;;;;8.95;4.47;;;;;;;;;;5024307;28;20132;-64
2021/08/10 08:32:48;;;;;;;8.90;3.90;;;;;;;;;;5022797;28;20050;-64
2021/08/10 08:35:15;;;;;;;9.57;4.20;;;;;;;;;;5022353;28;20050;-64
2021/08/10 08:37:41;;;;;;;11.98;4.22;;;;;;;;;;5026224;28;20050;-64
2021/08/10 08:40:08;;;;;;;12.30;4.00;;;;;;;;;;5023506;28;20124;-64
2021/08/10 08:42:34;;;;;;;9.88;3.40;;;;;;;;;;5022296;28;20070;-64
2021/08/10 08:45:01;;;;;;;7.13;3.47;;;;;;;;;;5020783;28;20096;-65
2021/08/10 08:47:27;;;;;;;8.40;3.85;;;;;;;;;;5021850;28;20517;-64
2021/08/10 08:49:56;;;;;;;8.77;3.53;;;;;;;;;;5023797;28;20089;-64
2021/08/10 08:52:23;;;;;;;11.35;4.00;;;;;;;;;;5028881;28;20049;-64
2021/08/10 08:54:50;;;;;;;;;;;;;;;;;;5024943;28;20065;-64
2021/08/10 08:57:16;;;;;;;7.93;3.58;;;;;;;;;;5026330;28;20332;-64
2021/08/10 08:59:43;;;;;;;7.97;3.75;;;;;;;;;;5029794;28;20053;-64
2021/08/10 09:02:11;;;;;;;8.02;3.67;;;;;;;;;;5029508;28;20148;-64
2021/08/10 09:04:38;;;;;;;8.70;3.63;;;;;;;;;;5025592;28;20493;-64
2021/08/10 09:07:04;;;;;;;8.63;2.60;;;;;;;;;;5025427;28;20981;-64
2021/08/10 09:09:31;;;;;;;6.67;3.23;;;;;;;;;;5028031;28;20053;-64
2021/08/10 09:12:07;;;;;;;7.05;3.05;;;;;;;;;;5029839;28;20327;-64
2021/08/10 09:14:47;;;;;;;9.77;3.20;;;;;;;;;;5023818;28;20084;-65
2021/08/10 09:17:21;;;;;;;7.85;3.83;;;;;;;;;;5025053;28;20554;-65
2021/08/10 09:19:48;;;;;;;4.72;3.20;;;;;;;;;;5025525;28;20084;-64
2021/08/10 09:22:17;;;;;;;6.22;3.03;;;;;;;;;;5027180;28;20133;-64
2021/08/10 09:25:03;;;;;;;9.18;3.17;;;;;;;;;;5025686;28;20087;-64
2021/08/10 09:27:30;;;;;;;7.78;3.45;;;;;;;;;;5027583;28;20144;-64
2021/08/10 09:29:57;;;;;;;6.68;3.50;;;;;;;;;;5021340;28;20073;-64
2021/08/10 09:32:23;;;;;;;;;;;;;;;;;;5023990;28;20103;-64
2021/08/10 09:35:05;;;;;;;7.75;3.08;;;;;;;;;;5024991;28;19952;-64
2021/08/10 09:37:32;;;;;;;7.32;3.15;;;;;;;;;;5025945;28;20120;-64
2021/08/10 09:39:59;;;;;;;7.50;3.60;;;;;;;;;;5030112;28;20085;-64
2021/08/10 09:42:26;;;;;;;8.57;3.13;;;;;;;;;;5027542;28;20308;-64
2021/08/10 09:44:55;;;;;;;6.63;3.00;;;;;;;;;;5024954;28;20049;-65
2021/08/10 09:47:32;;;;;;;7.05;2.72;;;;;;;;;;5024371;28;20050;-64
2021/08/10 09:50:00;;;;;;;7.18;2.88;;;;;;;;;;5019043;28;20490;-64
2021/08/10 09:52:27;;;;;;;6.50;3.13;;;;;;;;;;5019669;28;20497;-64
2021/08/10 09:54:54;;;;;;;;;;;;;;;;;;5022979;28;20476;-64
2021/08/10 09:57:20;;;;;;;5.57;3.05;;;;;;;;;;5024243;28;19975;-64
2021/08/10 09:59:47;;;;;;;10.60;3.10;;;;;;;;;;5027575;28;20097;-64
2021/08/10 10:02:16;;;;;;;9.50;3.55;;;;;;;;;;5018929;28;20525;-64
2021/08/10 10:04:53;;;;;;;6.38;2.88;;;;;;;;;;5021616;28;20085;-64
2021/08/10 10:07:21;;;;;;;8.50;3.17;;;;;;;;;;5024326;28;20125;-64
2021/08/10 10:09:48;;;;;;;10.73;3.08;;;;;;;;;;5020760;28;20121;-64
2021/08/10 10:12:15;;;;;;;6.07;3.53;;;;;;;;;;5024410;28;20132;-65
2021/08/10 10:14:44;;;;;;;9.00;3.15;;;;;;;;;;5025369;28;20049;-64
2021/08/10 10:17:11;;;;;;;8.20;3.30;;;;;;;;;;5023162;28;20052;-64
2021/08/10 10:19:38;;;;;;;7.30;3.42;;;;;;;;;;5021819;28;20065;-64
2021/08/10 10:22:14;;;;;;;8.75;3.40;;;;;;;;;;5024238;28;20096;-64
2021/08/10 10:24:47;;;;;;;9.55;3.30;;;;;;;;;;5025731;28;20077;-64
2021/08/10 10:27:15;;;;;;;7.15;2.83;;;;;;;;;;5023362;28;20136;-64
2021/08/10 10:29:48;;;;;;;6.68;3.45;;;;;;;;;;5026914;28;20056;-64
2021/08/10 10:32:18;;;;;;;6.72;3.13;;;;;;;;;;5025047;28;20548;-64
2021/08/10 10:34:46;;;;;;;9.20;3.15;;;;;;;;;;5023641;28;20137;-64
2021/08/10 10:37:17;;;;;;;7.35;2.80;;;;;;;;;;5019587;28;20496;-64
2021/08/10 10:39:44;;;;;;;5.45;2.72;;;;;;;;;;5022403;28;20053;-64
2021/08/10 10:42:15;;;;;;;9.50;3.33;;;;;;;;;;5021642;28;20084;-64
2021/08/10 10:44:43;;;;;;;6.82;2.90;;;;;;;;;;5023442;28;20136;-64
2021/08/10 10:47:22;;;;;;;5.30;3.20;;;;;;;;;;5027946;28;20125;-64
2021/08/10 10:50:08;;;;;;;7.60;3.55;;;;;;;;;;5025018;28;20073;-64
2021/08/10 10:52:35;;;;;;;6.82;3.38;;;;;;;;;;5019230;28;20838;-63
2021/08/10 10:55:03;;;;;;;6.77;3.57;;;;;;;;;;5022876;28;20160;-64
2021/08/10 10:57:29;;;;;;;9.50;3.58;;;;;;;;;;5023232;28;20324;-64
2021/08/10 10:59:56;;;;;;;5.77;3.77;;;;;;;;;;5024854;28;20141;-64
2021/08/10 11:02:26;;;;;;;6.25;3.53;;;;;;;;;;5026458;28;20489;-64
2021/08/10 11:05:08;;;;;;;8.02;4.07;;;;;;;;;;5025702;28;20049;-64
2021/08/10 11:07:39;;;;;;;4.50;3.13;;;;;;;;;;5022022;28;20153;-64
2021/08/10 11:10:06;;;;;;;5.45;3.35;;;;;;;;;;5024548;28;20046;-64
2021/08/10 11:12:46;;;;;;;6.93;3.20;;;;;;;;;;5024748;28;20046;-64
2021/08/10 11:15:14;;;;;;;6.25;3.60;;;;;;;;;;5025254;28;20073;-64
2021/08/10 11:17:41;;;;;;;7.22;3.42;;;;;;;;;;5024867;28;20042;-64
2021/08/10 11:20:23;;;;;;;4.83;3.20;;;;;;;;;;5025498;28;20477;-64
2021/08/10 11:23:11;;;;;;;4.88;3.42;;;;;;;;;;5023802;28;20129;-64
2021/08/10 11:25:37;;;;;;;5.60;3.85;;;;;;;;;;5020829;28;20648;-64
2021/08/10 11:28:22;;;;;;;7.00;3.28;;;;;;;;;;5024797;28;20144;-64
2021/08/10 11:30:49;;;;;;;6.35;3.40;;;;;;;;;;5025481;28;20136;-63
2021/08/10 11:33:37;;;;;;;9.38;3.92;;;;;;;;;;5025815;28;20590;-64
2021/08/10 11:36:12;;;;;;;6.97;3.70;;;;;;;;;;5023113;28;20100;-64
2021/08/10 11:38:45;;;;;;;6.22;3.58;;;;;;;;;;5021227;28;20808;-64
2021/08/10 11:41:12;;;;;;;6.10;3.25;;;;;;;;;;5029215;28;20056;-64
2021/08/10 11:43:46;;;;;;;6.53;3.30;;;;;;;;;;5026149;28;20093;-64
2021/08/10 11:46:14;;;;;;;4.30;2.78;;;;;;;;;;5021748;28;20054;-64
2021/08/10 11:48:48;;;;;;;5.38;3.30;;;;;;;;;;5019893;28;20470;-64
2021/08/10 11:51:15;;;;;;;6.60;3.60;;;;;;;;;;5021651;28;20524;-64
2021/08/10 11:53:41;;;;;;;5.65;3.53;;;;;;;;;;5016083;28;20084;-64
2021/08/10 11:56:21;;;;;;;7.47;3.40;;;;;;;;;;5023056;28;20084;-64
2021/08/10 11:58:47;;;;;;;5.43;2.90;;;;;;;;;;5023504;28;20082;-64
2021/08/10 12:01:14;;;;;;;5.20;2.92;;;;;;;;;;5022796;28;20141;-64
2021/08/10 12:03:41;;;;;;;5.22;3.13;;;;;;;;;;5022462;28;20049;-64
2021/08/10 12:06:08;;;;;;;7.30;3.40;;;;;;;;;;5020742;28;20057;-64
2021/08/10 12:08:35;;;;;;;4.22;3.10;;;;;;;;;;5023346;28;20123;-64
2021/08/10 12:11:01;;;;;;;5.32;3.08;;;;;;;;;;5027067;28;20673;-64
2021/08/10 12:13:29;;;;;;;4.68;2.63;;;;;;;;;;5026058;28;20165;-64
2021/08/10 12:15:56;;;;;;;6.10;3.42;;;;;;;;;;5023383;28;20133;-64
2021/08/10 12:18:24;;;;;;;7.15;3.58;;;;;;;;;;5023959;28;20073;-64
2021/08/10 12:21:16;;;;;;;7.00;3.33;;;;;;;;;;5024265;28;20080;-64
2021/08/10 12:23:49;;;;;;;6.72;3.60;;;;;;;;;;5021371;28;20133;-64
2021/08/10 12:26:19;;;;;;;5.20;3.45;;;;;;;;;;5021308;28;20137;-64
2021/08/10 12:29:00;;;;;;;4.35;2.88;;;;;;;;;;5025964;28;20132;-64
2021/08/10 12:31:28;;;;;;;5.63;3.15;;;;;;;;;;5020992;28;20080;-64
2021/08/10 12:33:54;;;;;;;;;;;;;;;;;;5025014;28;20046;-64
2021/08/10 12:36:21;;;;;;;6.72;3.50;;;;;;;;;;5024882;28;19922;-64
2021/08/10 12:38:50;;;;;;;5.97;3.50;;;;;;;;;;5019719;28;20145;-64
2021/08/10 12:41:28;;;;;;;4.32;2.92;;;;;;;;;;5018888;28;20120;-64
2021/08/10 12:43:55;;;;;;;6.75;3.13;;;;;;;;;;5022148;28;20091;-64
2021/08/10 12:46:32;;;;;;;6.28;3.35;;;;;;;;;;5022603;28;20081;-64
2021/08/10 12:49:05;;;;;;;8.30;3.50;;;;;;;;;;5021678;28;20141;-63
2021/08/10 12:51:51;;;;;;;6.82;3.80;;;;;;;;;;5026817;28;20096;-63
2021/08/10 12:54:18;;;;;;;6.10;3.40;;;;;;;;;;5023604;28;20136;-63
2021/08/10 12:56:44;;;;;;;6.53;3.50;;;;;;;;;;5018653;28;20484;-63
2021/08/10 12:59:10;;;;;;;5.80;3.25;;;;;;;;;;5019833;28;20155;-63
2021/08/10 13:01:38;;;;;;;6.20;3.27;;;;;;;;;;5019825;28;20662;-63
2021/08/10 13:04:05;;;;;;;7.53;3.13;;;;;;;;;;5023441;28;20340;-63
2021/08/10 13:06:32;;;;;;;4.70;2.92;;;;;;;;;;5023886;28;20084;-63
2021/08/10 13:08:58;;;;;;;6.27;2.93;;;;;;;;;;5024563;28;20069;-63
2021/08/10 13:11:25;;;;;;;4.25;2.60;;;;;;;;;;5012488;28;20136;-63
2021/08/10 13:13:52;;;;;;;5.05;2.90;;;;;;;;;;5017888;28;20123;-63
2021/08/10 13:16:34;;;;;;;7.20;2.80;;;;;;;;;;5015165;28;20085;-63
2021/08/10 13:19:10;;;;;;;4.88;2.28;;;;;;;;;;5023244;28;20504;-63
2021/08/10 13:21:43;;;;;;;5.03;2.20;;;;;;;;;;5019673;28;20053;-63
2021/08/10 13:24:10;;;;;;;4.50;2.28;;;;;;;;;;5021822;28;20080;-63
2021/08/10 13:26:43;;;;;;;3.67;2.50;;;;;;;;;;5024110;28;20132;-63
2021/08/10 13:29:10;;;;;;;4.53;2.58;;;;;;;;;;5019151;28;20078;-63
2021/08/10 13:31:49;;;;;;;2.83;2.05;;;;;;;;;;5022021;28;20103;-63
2021/08/10 13:34:18;;;;;;;4.90;2.40;;;;;;;;;;5021690;28;20467;-63
2021/08/10 13:36:46;;;;;;;3.38;2.20;;;;;;;;;;5024151;28;20081;-63
2021/08/10 13:39:13;;;;;;;7.43;2.60;;;;;;;;;;5027233;28;20128;-63
2021/08/10 13:41:43;;;;;;;;;;;;;;;;;;5019855;28;20136;-63
2021/08/10 13:44:13;;;;;;;2.97;2.08;;;;;;;;;;5019312;28;20377;-63
2021/08/10 13:46:42;;;;;;;3.25;2.10;;;;;;;;;;5028251;28;20145;-63
2021/08/10 13:49:11;;;;;;;5.15;2.53;;;;;;;;;;5025559;28;20049;-63
2021/08/10 13:51:40;;;;;;;2.95;2.38;;;;;;;;;;5028821;28;20077;-63
2021/08/10 13:54:07;;;;;;;2.65;1.92;;;;;;;;;;5026516;28;20146;-63
2021/08/10 13:56:34;;;;;;;3.63;2.72;;;;;;;;;;5024823;28;20053;-63
2021/08/10 13:59:01;;;;;;;2.65;2.10;;;;;;;;;;5020575;28;20053;-63
2021/08/10 14:01:45;;;;;;;2.95;2.10;;;;;;;;;;5025014;28;20465;-63
2021/08/10 14:04:12;;;;;;;4.78;2.17;;;;;;;;;;5029123;28;20050;-63
2021/08/10 14:06:39;;;;;;;4.05;2.58;;;;;;;;;;5026015;28;20045;-63
2021/08/10 14:09:05;;;;;;;3.92;2.63;;;;;;;;;;5024392;28;20144;-63
2021/08/10 14:11:32;;;;;;;3.53;2.53;;;;;;;;;;5022583;28;20133;-63
2021/08/10 14:13:59;;;;;;;6.07;2.92;;;;;;;;;;5027755;28;20580;-63
2021/08/10 14:16:25;;;;;;;5.50;2.40;;;;;;;;;;5020503;28;20088;-63
2021/08/10 14:18:52;;;;;;;3.33;2.10;;;;;;;;;;5024349;28;20037;-63
2021/08/10 14:21:19;;;;;;;4.18;2.67;;;;;;;;;;5020088;28;20509;-65
2021/08/10 14:23:45;;;;;;;5.63;2.60;;;;;;;;;;5021553;28;20513;-64
2021/08/10 14:26:12;;;;;;;4.57;2.70;;;;;;;;;;5025374;28;20088;-63
2021/08/10 14:28:41;;;;;;;4.88;3.03;;;;;;;;;;5020054;28;20082;-63
2021/08/10 14:31:11;;;;;;;4.65;2.60;;;;;;;;;;5020415;28;20136;-64
2021/08/10 14:33:39;;;;;;;4.13;2.80;;;;;;;;;;5014842;28;20060;-63
2021/08/10 14:36:05;;;;;;;3.28;2.30;;;;;;;;;;5020367;28;20142;-63
2021/08/10 14:38:32;;;;;;;7.30;2.75;;;;;;;;;;5027067;28;20527;-63